ULLI/LED METAR and TAF weather

Enter ICAO airport designator
Station Type Date Time Source
ULLI METAR 2018/04/27 00:30 UTC NOAA

ULLI 270030Z 25003MPS 210V280 CAVOK 04/02 Q1003 R28L/090060 NOSIG


Station Type Date Time Source
ULLI Decoded METAR 2018/04/27 00:30 UTC NOAA

St. Peterburg, Russia (ULLI) 59-58N 030-18E 6M
Apr 26, 2018 - 08:30 PM EDT / 2018.04.27 0030 UTC
Wind: from the WSW (250 degrees) at 7 MPH (6 KT) (direction variable):0
Visibility: greater than 7 mile(s):0
Temperature: 39 F (4 C)
Dew Point: 35 F (2 C)
Relative Humidity: 86%
Pressure (altimeter): 29.62 in. Hg (1003 hPa)
ob: ULLI 270030Z 25003MPS 210V280 CAVOK 04/02 Q1003 R28L/090060 NOSIG
cycle: 0

Station Type Date Time Source
ULLI TAF 2018/04/26 21:26 UTC NOAA

TAF ULLI 261957Z 2621/2721 27005MPS 9999 SCT020
TEMPO 2621/2706 23005G10MPS 2500 BR SCT007 BKN011
TEMPO 2706/2721 4000 -SHRA SCT011 BKN017CB


Example: see airport list